Terminal Aerodrome Forecast
Issued by NWS Memphis, TN

Home | Current Version | Previous Version | Text Only | Print | Product List | Glossary On
Versions: 1 2 3 4 5 6 7 8 9 10 11 12 13 14 15 16 17
000
FTUS44 KMEG 162332
TAFJBR
TAF
KJBR 162332Z 1700/1724 19007KT P6SM FEW035 SCT250
     FM171100 21010KT P6SM VCTS SCT015 BKN035CB OVC150
      TEMPO 1713/1717 6SM SHRA BKN025
     FM171700 23012G19KT P6SM VCSH SCT035 BKN050=

USA.gov is the U.S. government's official web portal to all federal, state and local government web resources and services.